Time;durP1;ratioP1;P1;durP2;ratioP2;P2;SDS_P1;SDS_P2;PMS_P1;PMS_P2;Temp;Humidity;BMP_temperature;BMP_pressure;BME280_temperature;BME280_humidity;BME280_pressure;Samples;Min_cycle;Max_cycle;Signal;HPM_P1;HPM_P2
2022/04/05 00:00:24;;;;;;;75.55;43.28;;;103.30;2227.20;;;;;;4908563;29;20119;-82
2022/04/05 00:02:56;;;;;;;105.40;56.97;;;128.10;2252.80;;;;;;4922224;29;20048;-84
2022/04/05 00:05:30;;;;;;;77.10;43.37;;;103.10;2227.20;;;;;;4923285;29;20036;-83
2022/04/05 00:08:16;;;;;;;50.90;33.17;;;128.10;2252.80;;;;;;4907087;29;20270;-82
2022/04/05 00:11:20;;;;;;;44.35;28.92;;;103.30;2227.20;;;;;;4911776;29;20039;-83
2022/04/05 00:17:43;;;;;;;71.70;42.30;;;103.30;2227.20;;;;;;4926649;29;20043;-82
2022/04/05 00:20:47;;;;;;;64.28;39.95;;;103.30;2227.20;;;;;;4926433;29;20024;-83
2022/04/05 00:23:39;;;;;;;56.25;34.17;;;103.30;2227.20;;;;;;4905259;29;20047;-81
2022/04/05 00:26:45;;;;;;;57.70;35.35;;;103.00;2227.20;;;;;;4915201;29;20024;-80
2022/04/05 00:29:39;;;;;;;54.50;33.63;;;103.10;2227.20;;;;;;4916408;29;20032;-80
2022/04/05 00:32:38;;;;;;;62.13;38.10;;;103.10;2227.20;;;;;;4913453;29;20040;-82
2022/04/05 00:35:47;;;;;;;68.50;39.85;;;103.20;2227.20;;;;;;4924198;29;20556;-81
2022/04/05 00:38:53;;;;;;;63.35;40.08;;;103.10;2227.20;;;;;;4907275;29;20040;-81
2022/04/05 00:41:30;;;;;;;60.40;38.33;;;103.10;2227.20;;;;;;4923923;29;20032;-82
2022/04/05 00:44:20;;;;;;;63.25;40.08;;;103.10;2227.20;;;;;;4905361;29;20385;-81
2022/04/05 00:53:46;;;;;;;66.78;38.92;;;103.00;2227.20;;;;;;4902666;29;20127;-80
2022/04/05 00:57:19;;;;;;;62.20;38.90;;;103.00;2227.20;;;;;;4923947;29;20043;-82
2022/04/05 01:00:07;;;;;;;58.17;33.22;;;102.90;2227.20;;;;;;4920693;29;20059;-81
2022/04/05 01:02:38;;;;;;;48.33;28.48;;;102.80;2227.20;;;;;;4904660;29;20048;-81
2022/04/05 01:05:07;;;;;;;56.22;34.45;;;102.90;2227.20;;;;;;4924727;29;20024;-80
2022/04/05 01:07:44;;;;;;;58.85;37.42;;;102.90;2227.20;;;;;;4923308;29;20055;-82
2022/04/05 01:10:11;;;;;;;66.97;39.08;;;102.80;2227.20;;;;;;4907702;29;20036;-82
2022/04/05 01:12:48;;;;;;;65.13;39.28;;;102.80;2227.20;;;;;;4891626;29;20123;-82
2022/04/05 01:15:20;;;;;;;63.63;39.42;;;102.80;2227.20;;;;;;4907076;29;20107;-83
2022/04/05 01:17:48;;;;;;;44.45;29.42;;;102.80;2227.20;;;;;;4909068;29;20028;-81
2022/04/05 01:20:15;;;;;;;41.63;26.48;;;102.70;2227.20;;;;;;4908335;29;20393;-81
2022/04/05 01:22:54;;;;;;;35.83;22.40;;;102.80;2227.20;;;;;;4904801;29;20047;-81
2022/04/05 01:25:20;;;;;;;39.33;23.95;;;102.60;2227.20;;;;;;4907620;29;20035;-78
2022/04/05 01:31:26;;;;;;;33.78;24.63;;;102.40;2227.20;;;;;;4904622;29;20064;-81
2022/04/05 01:34:00;;;;;;;47.03;31.60;;;102.40;2227.20;;;;;;4911238;29;20046;-81
2022/04/05 01:36:53;;;;;;;51.33;31.20;;;102.40;2227.20;;;;;;4899397;29;20047;-79
2022/04/05 01:39:33;;;;;;;52.65;33.40;;;102.40;2227.20;;;;;;4930817;29;20066;-81
2022/04/05 01:45:57;;;;;;;70.18;41.40;;;77.70;2227.20;;;;;;4905718;29;20088;-83
2022/04/05 01:48:27;;;;;;;54.13;32.90;;;77.50;2227.20;;;;;;4903178;29;20049;-81
2022/04/05 01:54:20;;;;;;;56.65;34.50;;;77.50;2227.20;;;;;;4908438;29;20073;-78
2022/04/05 02:00:20;;;;;;;54.93;32.97;;;77.70;2227.20;;;;;;4818278;29;20438;-79
2022/04/05 02:06:54;;;;;;;44.97;27.35;;;77.70;2227.20;;;;;;4818652;29;20045;-80
2022/04/05 02:10:01;;;;;;;46.20;29.55;;;77.50;2227.20;;;;;;4812798;29;20039;-80
2022/04/05 02:13:17;;;;;;;54.78;31.50;;;77.40;2227.20;;;;;;4802321;29;20039;-81
2022/04/05 02:16:04;;;;;;;50.95;33.05;;;77.50;2227.20;;;;;;4808566;29;20035;-80
2022/04/05 02:18:31;;;;;;;53.90;33.70;;;102.70;2227.20;;;;;;4810930;29;20079;-79
2022/04/05 02:24:22;;;;;;;52.00;32.25;;;77.70;2227.20;;;;;;4779491;30;20450;-78
2022/04/05 02:27:17;;;;;;;52.05;31.95;;;77.70;2227.20;;;;;;4780429;30;20035;-80
2022/04/05 02:29:46;;;;;;;51.38;29.38;;;77.70;2227.20;;;;;;4803560;29;20566;-76
2022/04/05 02:32:12;;;;;;;42.55;26.90;;;77.70;2227.20;;;;;;4838900;29;20069;-78
2022/04/05 02:34:40;;;;;;;38.00;24.73;;;77.70;2227.20;;;;;;4837567;29;20052;-78
2022/04/05 02:37:34;;;;;;;43.30;26.63;;;77.30;2227.20;;;;;;4850204;29;20174;-79
2022/04/05 02:40:40;;;;;;;42.72;27.60;;;77.40;2227.20;;;;;;4834057;29;20788;-81
2022/04/05 02:43:52;;;;;;;53.08;30.13;;;77.40;2227.20;;;;;;4865148;29;20597;-80
2022/04/05 02:46:28;;;;;;;45.97;27.40;;;77.30;2227.20;;;;;;4871481;29;20115;-78
2022/04/05 02:48:57;;;;;;;51.05;29.15;;;77.30;2227.20;;;;;;4866823;29;20033;-79
2022/04/05 02:51:24;;;;;;;43.33;27.60;;;77.40;2227.20;;;;;;4850431;29;20037;-80
2022/04/05 02:53:50;;;;;;;47.25;28.83;;;77.20;2227.20;;;;;;4848881;29;20041;-79
2022/04/05 02:56:17;;;;;;;46.53;29.00;;;77.30;2227.20;;;;;;4863988;29;20060;-78
2022/04/05 02:58:48;;;;;;;44.03;27.08;;;77.20;2227.20;;;;;;4890055;29;20035;-79
2022/04/05 03:01:15;;;;;;;58.20;36.08;;;77.20;2227.20;;;;;;4890582;29;20028;-80
2022/04/05 03:03:42;;;;;;;68.63;43.00;;;77.20;2227.20;;;;;;4906156;29;20056;-81
2022/04/05 03:06:10;;;;;;;56.22;32.20;;;77.10;2227.20;;;;;;4902228;29;20519;-77
2022/04/05 03:08:38;;;;;;;51.30;31.92;;;77.00;2227.20;;;;;;4906135;29;20064;-77
2022/04/05 03:11:05;;;;;;;50.55;30.63;;;77.00;2227.20;;;;;;4890921;29;20131;-80
2022/04/05 03:13:34;;;;;;;46.67;32.03;;;77.10;2227.20;;;;;;4906036;29;20039;-79
2022/04/05 03:16:03;;;;;;;47.83;32.65;;;77.00;2227.20;;;;;;4907396;29;20104;-79
2022/04/05 03:18:29;;;;;;;47.15;32.00;;;76.90;2227.20;;;;;;4875921;29;20036;-80
2022/04/05 03:20:57;;;;;;;49.95;32.03;;;77.20;2227.20;;;;;;4892276;29;20028;-77
2022/04/05 03:23:24;;;;;;;50.80;31.55;;;52.10;2227.20;;;;;;4891756;29;20484;-77
2022/04/05 03:26:33;;;;;;;50.17;30.38;;;76.80;2227.20;;;;;;4907516;29;20029;-79
2022/04/05 03:30:02;;;;;;;49.65;28.80;;;77.00;2227.20;;;;;;4888166;29;20037;-80
2022/04/05 03:33:07;;;;;;;46.03;28.38;;;76.90;2227.20;;;;;;4880502;29;20044;-80
2022/04/05 03:36:22;;;;;;;51.78;32.50;;;77.00;2227.20;;;;;;4882776;29;20096;-79
2022/04/05 03:40:12;;;;;;;57.80;35.33;;;76.90;2227.20;;;;;;4883637;29;20043;-81
2022/04/05 03:43:12;;;;;;;52.05;33.22;;;76.80;2227.20;;;;;;4877279;29;20047;-78
2022/04/05 03:49:04;;;;;;;53.03;32.50;;;52.00;2227.20;;;;;;4831361;29;20062;-78
2022/04/05 03:52:19;;;;;;;72.13;38.42;;;51.90;2227.20;;;;;;4826355;29;20042;-79
2022/04/05 03:55:54;;;;;;;57.22;33.78;;;52.10;2227.20;;;;;;4856541;29;20093;-77
2022/04/05 04:10:09;;;;;;;49.25;30.95;;;76.90;2227.20;;;;;;4870811;29;20074;-78
2022/04/05 04:13:20;;;;;;;54.95;31.88;;;76.80;2227.20;;;;;;4858334;29;20177;-79
2022/04/05 04:20:25;;;;;;;57.53;32.10;;;51.70;2227.20;;;;;;4900259;29;20092;-79
2022/04/05 04:27:33;;;;;;;49.47;30.17;;;51.70;2227.20;;;;;;4850592;29;20108;-77
2022/04/05 04:31:29;;;;;;;50.92;28.42;;;51.80;2227.20;;;;;;4848946;29;20034;-80
2022/04/05 04:34:59;;;;;;;45.47;28.15;;;51.80;2227.20;;;;;;4812328;29;20040;-77
2022/04/05 04:38:30;;;;;;;59.05;34.05;;;51.60;2227.20;;;;;;4807286;29;20084;-76
2022/04/05 04:41:21;;;;;;;74.28;41.97;;;51.70;2227.20;;;;;;4810959;29;20035;-77
2022/04/05 04:43:52;;;;;;;66.97;40.13;;;51.60;2227.20;;;;;;4816038;29;20623;-77
2022/04/05 04:46:18;;;;;;;120.45;82.88;;;51.50;2227.20;;;;;;4813738;29;20565;-77
2022/04/05 04:48:47;;;;;;;141.15;101.10;;;51.50;2227.20;;;;;;4812759;29;20515;-77
2022/04/05 04:51:16;;;;;;;203.45;153.63;;;51.70;2227.20;;;;;;4858400;29;20040;-77
2022/04/05 04:53:48;;;;;;;88.03;60.50;;;51.60;2227.20;;;;;;4879137;29;20497;-78
2022/04/05 04:56:18;;;;;;;93.53;61.72;;;51.70;2227.20;;;;;;4909288;29;20075;-76
2022/04/05 04:59:08;;;;;;;77.93;52.90;;;51.70;2227.20;;;;;;4926423;29;20036;-77
2022/04/05 05:02:04;;;;;;;63.83;40.35;;;51.80;2227.20;;;;;;4913094;29;20055;-77
2022/04/05 05:04:34;;;;;;;53.88;35.33;;;51.90;2227.20;;;;;;4926959;29;20048;-77
2022/04/05 05:07:06;;;;;;;62.75;40.63;;;52.00;2227.20;;;;;;4926185;29;20111;-76
2022/04/05 05:10:14;;;;;;;57.47;35.38;;;52.00;2227.20;;;;;;4913449;29;20033;-78
2022/04/05 05:13:05;;;;;;;87.47;55.95;;;76.80;2227.20;;;;;;4910341;29;20039;-77
2022/04/05 05:15:56;;;;;;;61.22;39.53;;;76.80;2227.20;;;;;;4894103;29;20037;-78
2022/04/05 05:19:01;;;;;;;65.35;43.55;;;76.90;2227.20;;;;;;4893113;29;20044;-77
2022/04/05 05:22:37;;;;;;;66.03;43.40;;;76.90;2227.20;;;;;;4879553;29;20109;-78
2022/04/05 05:29:06;;;;;;;74.10;52.47;;;77.20;2227.20;;;;;;4827863;29;20037;-79
2022/04/05 05:32:20;;;;;;;65.00;39.25;;;77.30;2227.20;;;;;;4809960;29;20570;-78
2022/04/05 05:35:25;;;;;;;66.22;40.38;;;77.40;2227.20;;;;;;4782064;29;20043;-80
2022/04/05 05:41:01;;;;;;;69.82;45.40;;;77.40;2227.20;;;;;;4777926;30;20087;-78
2022/04/05 05:43:41;;;;;;;88.05;67.00;;;77.50;2227.20;;;;;;4761111;30;20154;-78
2022/04/05 05:46:15;;;;;;;81.13;55.20;;;77.60;2227.20;;;;;;4791066;30;20039;-77
2022/04/05 05:48:45;;;;;;;84.28;63.90;;;77.60;2227.20;;;;;;4789154;29;20054;-77
2022/04/05 05:55:07;;;;;;;95.63;60.22;;;102.50;2227.20;;;;;;4883696;29;20036;-82
2022/04/05 05:58:05;;;;;;;78.05;45.90;;;102.50;2227.20;;;;;;4908467;29;20875;-80
2022/04/05 06:01:16;;;;;;;78.35;44.17;;;102.40;2227.20;;;;;;4918550;29;20044;-81
2022/04/05 06:04:21;;;;;;;64.22;41.60;;;102.60;2227.20;;;;;;4908139;29;20036;-79
2022/04/05 06:07:24;;;;;;;81.43;50.03;;;102.60;2227.20;;;;;;4921810;29;20048;-79
2022/04/05 06:10:33;;;;;;;73.63;49.10;;;102.50;2227.20;;;;;;4855760;29;20044;-80
2022/04/05 06:14:01;;;;;;;50.00;33.75;;;102.60;2227.20;;;;;;4884106;29;20581;-79
2022/04/05 06:17:20;;;;;;;57.80;35.05;;;102.80;2227.20;;;;;;4883119;29;20044;-80
2022/04/05 06:20:30;;;;;;;55.28;34.45;;;102.90;2227.20;;;;;;4890159;29;20033;-79
2022/04/05 06:24:02;;;;;;;65.25;47.92;;;103.00;2227.20;;;;;;4878767;29;20033;-77
2022/04/05 06:27:19;;;;;;;50.63;32.35;;;103.10;2227.20;;;;;;4901173;29;20037;-79
2022/04/05 06:30:19;;;;;;;51.33;33.35;;;103.30;2227.20;;;;;;4896450;29;20064;-80
2022/04/05 06:32:55;;;;;;;57.78;36.53;;;128.10;2252.80;;;;;;4901302;29;20045;-78
2022/04/05 06:35:21;;;;;;;51.10;32.00;;;128.20;2252.80;;;;;;4886876;29;20112;-80
2022/04/05 06:37:47;;;;;;;63.58;39.67;;;128.50;2252.80;;;;;;4886151;29;20076;-80
2022/04/05 06:40:15;;;;;;;58.65;37.03;;;128.50;2252.80;;;;;;4885240;29;20033;-81
2022/04/05 06:42:44;;;;;;;64.18;42.53;;;128.70;2252.80;;;;;;4889163;29;20371;-78
2022/04/05 06:45:50;;;;;;;75.07;49.97;;;128.70;2252.80;;;;;;4904238;29;20029;-78
2022/04/05 06:48:54;;;;;;;56.97;38.45;;;128.90;2252.80;;;;;;4926473;29;20049;-78
2022/04/05 06:51:59;;;;;;;47.10;30.10;;;153.70;2252.80;;;;;;4908071;29;20572;-79
2022/04/05 06:54:39;;;;;;;48.72;32.33;;;153.90;2252.80;;;;;;4918365;29;20096;-80
2022/04/05 06:57:12;;;;;;;58.88;38.72;;;154.00;2252.80;;;;;;4909129;29;20072;-80
2022/04/05 06:59:39;;;;;;;64.95;47.58;;;154.10;2252.80;;;;;;4924282;29;20111;-76
2022/04/05 07:02:23;;;;;;;44.72;32.20;;;154.30;2252.80;;;;;;4907243;29;20043;-78
2022/04/05 07:04:50;;;;;;;54.30;35.30;;;154.50;2252.80;;;;;;4904269;29;20028;-79
2022/04/05 07:07:23;;;;;;;56.30;38.85;;;154.50;2252.80;;;;;;4902746;29;20192;-84
2022/04/05 07:10:15;;;;;;;103.22;72.05;;;179.30;2252.80;;;;;;4904692;29;20032;-81
2022/04/05 07:13:31;;;;;;;107.32;69.25;;;179.50;2252.80;;;;;;4916129;29;20048;-82
2022/04/05 07:16:39;;;;;;;77.95;50.58;;;179.70;2252.80;;;;;;4878862;29;20037;-82
2022/04/05 07:19:49;;;;;;;89.50;56.75;;;179.90;2252.80;;;;;;4879895;29;20044;-81
2022/04/05 07:22:56;;;;;;;46.50;31.77;;;180.00;2252.80;;;;;;4880968;29;20057;-84
2022/04/05 07:25:42;;;;;;;45.42;31.50;;;180.10;2252.80;;;;;;4843722;29;20077;-83
2022/04/05 07:28:33;;;;;;;52.88;34.22;;;205.40;2252.80;;;;;;4863078;29;20044;-78
2022/04/05 07:31:30;;;;;;;40.30;30.48;;;205.10;2252.80;;;;;;4838514;29;20102;-80
2022/04/05 07:33:58;;;;;;;40.95;30.00;;;205.20;2252.80;;;;;;4853952;29;20121;-80
2022/04/05 07:36:29;;;;;;;39.15;27.98;;;205.40;2252.80;;;;;;4841954;29;20037;-82
2022/04/05 07:38:55;;;;;;;43.38;30.70;;;205.30;2252.80;;;;;;4858842;29;20034;-80
2022/04/05 07:41:23;;;;;;;49.42;36.08;;;205.50;2252.80;;;;;;4859242;29;20406;-80
2022/04/05 07:43:49;;;;;;;40.00;29.02;;;205.70;2252.80;;;;;;4858941;29;20572;-78
2022/04/05 07:46:15;;;;;;;40.65;27.05;;;230.50;2252.80;;;;;;4861974;29;20034;-78
2022/04/05 07:48:41;;;;;;;46.25;32.42;;;230.60;2252.80;;;;;;4882817;29;20033;-79
2022/04/05 07:51:08;;;;;;;34.78;27.02;;;230.70;2252.80;;;;;;4883417;29;20371;-78
2022/04/05 07:53:34;;;;;;;36.13;27.95;;;230.80;2252.80;;;;;;4883714;29;20039;-78
2022/04/05 07:56:01;;;;;;;35.88;26.75;;;230.90;2252.80;;;;;;4881349;29;20052;-81
2022/04/05 07:58:27;;;;;;;37.25;28.27;;;231.00;2252.80;;;;;;4880787;29;20430;-83
2022/04/05 08:00:56;;;;;;;38.53;26.95;;;231.00;2252.80;;;;;;4884209;29;20025;-79
2022/04/05 08:03:23;;;;;;;35.22;27.52;;;231.20;2252.80;;;;;;4909395;29;20041;-79
2022/04/05 08:05:49;;;;;;;35.65;27.92;;;231.30;2252.80;;;;;;4912437;29;20036;-80
2022/04/05 08:08:15;;;;;;;42.72;30.42;;;256.20;2252.80;;;;;;4884848;29;20072;-79
2022/04/05 08:10:42;;;;;;;34.13;26.48;;;256.20;2252.80;;;;;;4900330;29;20548;-83
2022/04/05 08:13:10;;;;;;;37.08;26.30;;;256.40;2252.80;;;;;;4918449;29;20110;-82
2022/04/05 08:15:38;;;;;;;38.08;26.63;;;256.50;2252.80;;;;;;4904058;29;20032;-82
2022/04/05 08:18:04;;;;;;;27.60;20.58;;;256.80;2252.80;;;;;;4903564;29;20028;-82
2022/04/05 08:20:36;;;;;;;29.88;20.33;;;281.60;2278.40;;;;;;4920810;29;20056;-82
2022/04/05 08:23:03;;;;;;;30.70;20.67;;;281.80;2278.40;;;;;;4903975;29;20147;-82
2022/04/05 08:25:33;;;;;;;24.15;18.67;;;282.40;2278.40;;;;;;4903443;29;20028;-82
2022/04/05 08:28:22;;;;;;;33.22;21.48;;;282.10;2278.40;;;;;;4903882;29;20024;-84
2022/04/05 08:31:22;;;;;;;30.00;21.25;;;282.20;2278.40;;;;;;4895006;29;20489;-81
2022/04/05 08:33:48;;;;;;;27.65;18.63;;;282.20;2278.40;;;;;;4896062;29;20035;-81
2022/04/05 08:36:15;;;;;;;28.38;18.70;;;282.30;2278.40;;;;;;4887566;29;20091;-79
2022/04/05 08:38:44;;;;;;;21.75;16.40;;;282.40;2278.40;;;;;;4901905;29;20032;-83
2022/04/05 08:41:29;;;;;;;25.45;17.88;;;282.40;2278.40;;;;;;4919027;29;20155;-84
2022/04/05 08:43:56;;;;;;;21.13;14.23;;;307.30;2304.00;;;;;;4887409;29;20028;-77
2022/04/05 08:46:23;;;;;;;26.58;16.38;;;282.50;2278.40;;;;;;4902360;29;20024;-80
2022/04/05 08:48:53;;;;;;;23.60;17.20;;;307.40;2304.00;;;;;;4902817;29;20545;-76
2022/04/05 08:51:25;;;;;;;23.98;14.35;;;307.60;2304.00;;;;;;4903324;29;20031;-82
2022/04/05 09:12:45;;;;;;;20.73;14.23;;;332.90;2329.60;;;;;;4881235;29;20079;-77
2022/04/05 09:15:17;;;;;;;27.98;20.73;;;332.80;2329.60;;;;;;4881898;29;20045;-78
2022/04/05 09:17:47;;;;;;;22.80;15.55;;;333.10;2329.60;;;;;;4865627;29;20063;-76
2022/04/05 09:20:16;;;;;;;23.00;15.35;;;333.10;2329.60;;;;;;4881095;29;20053;-78
2022/04/05 09:22:46;;;;;;;17.45;13.57;;;333.20;2329.60;;;;;;4881231;29;20501;-79
2022/04/05 09:29:39;;;;;;;16.95;11.98;;;333.10;2329.60;;;;;;4769920;30;20039;-86
2022/04/05 09:32:44;;;;;;;22.67;14.85;;;333.20;2329.60;;;;;;4755468;30;20031;-81
2022/04/05 09:35:46;;;;;;;28.35;18.70;;;333.40;2329.60;;;;;;4755555;30;20035;-81
2022/04/05 09:38:21;;;;;;;24.42;13.23;;;358.40;2304.00;;;;;;4770425;30;20040;-83
2022/04/05 09:41:57;;;;;;;15.00;11.77;;;358.50;2252.80;;;;;;4786426;29;20090;-81
2022/04/05 09:44:37;;;;;;;16.83;11.32;;;358.40;2252.80;;;;;;4791037;29;20038;-76
2022/04/05 09:47:11;;;;;;;29.40;19.33;;;358.40;2201.60;;;;;;4806123;29;20076;-83
2022/04/05 09:49:41;;;;;;;18.10;11.25;;;358.50;2227.20;;;;;;4805950;29;20128;-79
2022/04/05 09:52:28;;;;;;;16.45;10.80;;;358.80;2227.20;;;;;;4806212;29;20045;-80
2022/04/05 09:55:15;;;;;;;23.33;14.15;;;359.00;2201.60;;;;;;4862042;29;20096;-78
2022/04/05 09:57:42;;;;;;;13.55;8.90;;;359.10;2176.00;;;;;;4864517;29;20045;-80
2022/04/05 10:00:14;;;;;;;9.90;7.70;;;359.30;2150.40;;;;;;4880645;29;20044;-78
2022/04/05 10:03:09;;;;;;;11.57;7.40;;;384.10;2124.80;;;;;;4879937;29;20029;-79
2022/04/05 10:09:08;;;;;;;13.75;7.20;;;384.40;2048.00;;;;;;4860554;29;20070;-82
2022/04/05 10:11:52;;;;;;;9.35;6.82;;;384.80;1996.80;;;;;;4845017;29;20056;-81
2022/04/05 10:14:20;;;;;;;13.13;8.60;;;409.70;1996.80;;;;;;4864165;29;20124;-85
2022/04/05 10:16:49;;;;;;;18.52;12.55;;;409.70;1996.80;;;;;;4864604;29;20451;-84
2022/04/05 10:19:17;;;;;;;9.63;6.57;;;410.00;1945.60;;;;;;4864874;29;20112;-84
2022/04/05 10:21:48;;;;;;;10.35;7.00;;;410.10;1894.40;;;;;;4881363;29;20048;-84
2022/04/05 10:24:27;;;;;;;10.77;7.00;;;384.90;1868.80;;;;;;4879644;29;20029;-83
2022/04/05 10:26:54;;;;;;;12.70;7.85;;;410.20;1920.00;;;;;;4879931;29;20061;-82
2022/04/05 10:29:30;;;;;;;13.05;8.13;;;435.20;1894.40;;;;;;4879883;29;20028;-83
2022/04/05 10:33:08;;;;;;;10.77;6.82;;;435.50;1817.60;;;;;;4863978;29;20168;-84
2022/04/05 10:39:15;;;;;;;11.45;6.68;;;435.90;1792.00;;;;;;4878439;29;20039;-84
2022/04/05 10:41:43;;;;;;;9.05;4.38;;;436.00;1766.40;;;;;;4864184;29;20037;-84
2022/04/05 10:44:31;;;;;;;9.52;5.38;;;435.50;1689.60;;;;;;4880073;29;20029;-86
2022/04/05 10:47:01;;;;;;;8.10;5.70;;;460.80;1740.80;;;;;;4866630;29;20041;-84
2022/04/05 10:49:42;;;;;;;11.07;6.22;;;461.10;1715.20;;;;;;4879499;29;20036;-84
2022/04/05 10:52:31;;;;;;;9.20;6.07;;;461.30;1715.20;;;;;;4879450;29;20064;-84
2022/04/05 10:55:04;;;;;;;8.63;5.38;;;461.60;1664.00;;;;;;4879534;29;20101;-81
2022/04/05 10:57:35;;;;;;;8.48;4.90;;;486.40;1638.40;;;;;;4879341;29;20057;-83
2022/04/05 11:00:05;;;;;;;9.48;5.85;;;486.50;1587.20;;;;;;4878027;29;20043;-82
2022/04/05 11:02:38;;;;;;;9.30;5.80;;;486.70;1612.80;;;;;;4864175;29;20422;-82
2022/04/05 12:00:09;;;;;;;5.55;3.67;;;563.50;1356.80;;;;;;5293684;23;20083;-80
2022/04/05 12:02:37;;;;;;;7.85;3.90;;;563.50;1356.80;;;;;;4936135;29;20139;-79
2022/04/05 12:05:03;;;;;;;5.60;3.50;;;563.60;1331.20;;;;;;4918427;29;20094;-78
2022/04/05 12:07:35;;;;;;;6.00;3.75;;;563.80;1356.80;;;;;;4919139;29;20036;-78
2022/04/05 12:10:24;;;;;;;12.82;6.43;;;563.30;1305.60;;;;;;4919126;29;20503;-79
2022/04/05 12:12:58;;;;;;;9.65;4.72;;;563.50;1331.20;;;;;;4907486;29;20128;-79
2022/04/05 12:15:43;;;;;;;6.15;3.63;;;563.90;1280.00;;;;;;4919011;29;20031;-79
2022/04/05 12:18:42;;;;;;;6.00;3.53;;;563.90;1305.60;;;;;;4918824;29;20397;-79
2022/04/05 12:21:14;;;;;;;6.65;3.00;;;588.80;1305.60;;;;;;4918643;29;20491;-79
2022/04/05 12:23:49;;;;;;;5.55;3.00;;;563.90;1254.40;;;;;;4926743;29;20024;-78
2022/04/05 12:26:27;;;;;;;8.25;3.63;;;563.60;1280.00;;;;;;4939886;29;20039;-78
2022/04/05 12:28:58;;;;;;;6.53;4.47;;;564.10;1331.20;;;;;;4919142;29;20087;-77
2022/04/05 12:31:43;;;;;;;6.70;3.95;;;564.10;1280.00;;;;;;4919308;29;20035;-78
2022/04/05 12:34:14;;;;;;;5.70;4.00;;;589.10;1280.00;;;;;;4918388;29;20031;-78
2022/04/05 12:37:08;;;;;;;4.65;3.08;;;589.40;1305.60;;;;;;4918694;29;20059;-78
2022/04/05 12:40:27;;;;;;;6.15;4.32;;;589.20;1254.40;;;;;;4918622;29;20035;-79
2022/04/05 12:43:38;;;;;;;;;;;;;;;;;;;;;
2022/04/05 12:46:37;;;;;;;4.95;3.13;;;589.20;1254.40;;;;;;4935618;29;20038;-79
2022/04/05 12:49:51;;;;;;;5.53;3.92;;;589.30;1254.40;;;;;;4891682;29;20062;-78
2022/04/05 12:52:26;;;;;;;16.50;10.80;;;589.40;1254.40;;;;;;4897993;29;20071;-79
2022/04/05 12:54:57;;;;;;;7.70;3.95;;;589.30;1228.80;;;;;;4918300;29;20031;-80
2022/04/05 13:00:52;;;;;;;39.15;32.42;;;589.60;1228.80;;;;;;4916364;29;20094;-80
2022/04/05 13:03:21;;;;;;;23.63;19.40;;;589.70;1254.40;;;;;;4922653;29;20075;-80
2022/04/05 13:09:50;;;;;;;9.38;7.75;;;589.10;1280.00;;;;;;4939045;29;20087;-78
2022/04/05 13:12:18;;;;;;;11.75;8.05;;;589.50;1254.40;;;;;;4827161;29;20046;-78
2022/04/05 13:14:45;;;;;;;11.85;7.05;;;589.60;1254.40;;;;;;4839817;29;20052;-77
2022/04/05 13:17:12;;;;;;;11.30;7.97;;;589.40;1254.40;;;;;;4921904;29;20183;-77
2022/04/05 13:19:39;;;;;;;11.10;7.57;;;563.60;1254.40;;;;;;4921580;29;20035;-78
2022/04/05 13:22:14;;;;;;;8.48;5.95;;;589.60;1254.40;;;;;;4921625;29;20035;-78
2022/04/05 13:24:45;;;;;;;8.98;4.38;;;589.50;1254.40;;;;;;4922216;29;20027;-80
2022/04/05 13:27:12;;;;;;;7.43;4.45;;;614.40;1254.40;;;;;;4922285;29;20023;-80
2022/04/05 13:29:46;;;;;;;7.00;4.45;;;614.40;1280.00;;;;;;4921683;29;20032;-79
2022/04/05 13:32:21;;;;;;;4.55;2.78;;;614.60;1254.40;;;;;;4921689;29;20095;-78
2022/04/05 13:34:47;;;;;;;7.10;3.90;;;614.50;1254.40;;;;;;4921452;29;20027;-78
2022/04/05 13:37:15;;;;;;;9.43;7.32;;;614.60;1280.00;;;;;;4921560;29;20499;-79
2022/04/05 13:39:41;;;;;;;13.23;9.52;;;614.70;1280.00;;;;;;4921655;29;20034;-79
2022/04/05 13:42:09;;;;;;;12.57;6.28;;;614.70;1254.40;;;;;;4921668;29;20122;-78
2022/04/05 13:44:38;;;;;;;17.88;7.03;;;614.80;1305.60;;;;;;4921439;29;20024;-79
2022/04/05 13:47:04;;;;;;;6.55;4.30;;;614.90;1280.00;;;;;;4921573;29;20126;-78
2022/04/05 13:49:31;;;;;;;8.77;6.80;;;614.90;1254.40;;;;;;4921401;29;20032;-77
2022/04/05 13:51:58;;;;;;;13.10;8.68;;;614.60;1228.80;;;;;;4937926;29;20417;-77
2022/04/05 13:54:25;;;;;;;7.35;5.88;;;589.10;1228.80;;;;;;4921316;29;20031;-79
2022/04/05 13:56:51;;;;;;;10.77;7.13;;;589.10;1254.40;;;;;;4920858;29;20049;-78
2022/04/05 14:02:21;;;;;;;12.80;7.05;;;589.40;1254.40;;;;;;4937973;29;20030;-80
2022/04/05 14:05:16;;;;;;;;;;;;;;;;;;;;;
2022/04/05 14:08:12;;;;;;;8.18;3.83;;;589.70;1228.80;;;;;;4925726;29;20050;-78
2022/04/05 14:14:16;;;;;;;104.05;72.95;;;589.50;1228.80;;;;;;4928163;29;20083;-79
2022/04/05 14:16:41;;;;;;;36.40;25.90;;;589.70;1254.40;;;;;;4920738;29;20028;-80
2022/04/05 14:19:26;;;;;;;122.55;89.68;;;589.70;1254.40;;;;;;4920286;29;20058;-80
2022/04/05 14:21:53;;;;;;;63.63;46.28;;;614.50;1228.80;;;;;;4920699;29;20023;-79
2022/04/05 14:24:22;;;;;;;20.02;15.77;;;614.60;1280.00;;;;;;4920821;29;20028;-76
2022/04/05 14:26:54;;;;;;;10.25;7.60;;;614.80;1254.40;;;;;;4937310;29;20212;-79
2022/04/05 14:29:20;;;;;;;10.57;6.90;;;614.70;1254.40;;;;;;4920658;29;20027;-79
2022/04/05 14:31:46;;;;;;;15.43;8.93;;;589.70;1203.20;;;;;;4920710;29;20036;-78
2022/04/05 14:34:15;;;;;;;10.93;6.78;;;614.60;1280.00;;;;;;4920300;29;20031;-79
2022/04/05 14:36:58;;;;;;;10.63;6.05;;;614.60;1254.40;;;;;;4920426;29;20039;-78
2022/04/05 14:39:24;;;;;;;10.32;6.82;;;589.40;1203.20;;;;;;4920420;29;20063;-77
2022/04/05 14:41:51;;;;;;;19.90;14.63;;;589.60;1254.40;;;;;;4920540;29;20067;-78
2022/04/05 14:44:17;;;;;;;6.82;3.80;;;614.40;1254.40;;;;;;4920477;29;20075;-78
2022/04/05 14:46:42;;;;;;;7.75;4.15;;;589.70;1254.40;;;;;;4920293;29;20404;-78
2022/04/05 14:49:08;;;;;;;12.10;9.05;;;589.70;1228.80;;;;;;4920284;29;20123;-78
2022/04/05 14:51:36;;;;;;;10.13;9.10;;;589.70;1228.80;;;;;;4920119;29;20379;-80
2022/04/05 14:54:05;;;;;;;10.38;7.28;;;589.60;1228.80;;;;;;4920208;29;20027;-78
2022/04/05 14:56:47;;;;;;;9.95;6.00;;;589.40;1228.80;;;;;;4920494;29;20090;-79
2022/04/05 14:59:45;;;;;;;10.45;5.47;;;589.60;1228.80;;;;;;4916543;29;20398;-80
2022/04/05 15:09:15;;;;;;;8.32;5.05;;;589.60;1254.40;;;;;;4917724;29;20035;-77
2022/04/05 15:12:07;;;;;;;10.75;4.68;;;589.00;1228.80;;;;;;4916490;29;20473;-78
2022/04/05 15:14:34;;;;;;;13.57;8.38;;;589.00;1254.40;;;;;;4913302;29;20469;-77
2022/04/05 15:17:04;;;;;;;10.15;6.90;;;589.10;1254.40;;;;;;4916777;29;20035;-77
2022/04/05 15:19:31;;;;;;;5.88;3.92;;;589.10;1280.00;;;;;;4917879;29;20035;-77
2022/04/05 15:21:57;;;;;;;7.88;4.47;;;564.10;1254.40;;;;;;4916365;29;20035;-77
2022/04/05 15:24:24;;;;;;;13.30;6.53;;;564.10;1254.40;;;;;;4916669;29;20032;-78
2022/04/05 15:27:01;;;;;;;8.65;3.90;;;564.10;1280.00;;;;;;4916623;29;20039;-77
2022/04/05 15:29:35;;;;;;;9.25;5.78;;;563.70;1280.00;;;;;;4916318;29;20039;-77
2022/04/05 15:32:02;;;;;;;8.88;4.00;;;563.50;1305.60;;;;;;4916677;29;20028;-78
2022/04/05 15:34:28;;;;;;;12.82;7.70;;;563.50;1280.00;;;;;;4916460;29;20032;-77
2022/04/05 15:36:54;;;;;;;14.40;9.85;;;563.30;1305.60;;;;;;4915982;29;20389;-78
2022/04/05 15:39:19;;;;;;;10.02;6.25;;;538.50;1305.60;;;;;;4916295;29;20052;-78
2022/04/05 15:41:45;;;;;;;6.50;4.78;;;538.10;1331.20;;;;;;4916227;29;20032;-77
2022/04/05 15:44:11;;;;;;;8.60;4.82;;;537.70;1331.20;;;;;;4917262;29;20028;-78
2022/04/05 15:46:37;;;;;;;15.40;7.82;;;537.80;1356.80;;;;;;4916292;29;20500;-78
2022/04/05 15:49:03;;;;;;;11.43;6.05;;;537.60;1382.40;;;;;;4915999;29;20043;-77
2022/04/05 15:51:29;;;;;;;10.88;5.78;;;512.50;1382.40;;;;;;4916483;29;20039;-78
2022/04/05 15:53:55;;;;;;;19.67;15.95;;;512.00;1382.40;;;;;;4916285;29;20028;-79
2022/04/05 15:56:20;;;;;;;14.23;9.90;;;512.00;1408.00;;;;;;4917415;29;20028;-78
2022/04/05 16:36:32;;;;;;;34.03;24.33;;;461.10;1612.80;;;;;;5933064;23;20072;31
2022/04/05 16:39:00;;;;;;;26.95;21.48;;;461.00;1612.80;;;;;;4856318;29;20128;-79
2022/04/05 16:41:38;;;;;;;29.48;19.52;;;460.80;1612.80;;;;;;4859773;29;20057;-80
2022/04/05 16:44:18;;;;;;;23.88;18.10;;;436.10;1612.80;;;;;;4860526;29;20121;-80